sensor_id;sensor_type;location;lat;lon;timestamp;temperature;humidity
6954;DHT22;3516;47.980;8.808;2023-04-26T03:56:17;2.90;99.90
6954;DHT22;3516;47.980;8.808;2023-04-26T03:58:43;2.90;99.90
6954;DHT22;3516;47.980;8.808;2023-04-26T04:01:10;2.90;99.90
6954;DHT22;3516;47.980;8.808;2023-04-26T04:03:37;2.90;99.90
6954;DHT22;3516;47.980;8.808;2023-04-26T04:06:04;3.00;99.90
6954;DHT22;3516;47.980;8.808;2023-04-26T04:08:31;3.00;99.90
6954;DHT22;3516;47.980;8.808;2023-04-26T04:10:58;2.90;99.90
6954;DHT22;3516;47.980;8.808;2023-04-26T04:13:27;2.90;99.90
6954;DHT22;3516;47.980;8.808;2023-04-26T04:15:53;2.90;99.90
6954;DHT22;3516;47.980;8.808;2023-04-26T04:18:20;2.90;99.90
6954;DHT22;3516;47.980;8.808;2023-04-26T04:20:47;2.90;99.90
6954;DHT22;3516;47.980;8.808;2023-04-26T04:23:14;2.90;99.90
6954;DHT22;3516;47.980;8.808;2023-04-26T04:25:41;2.90;99.90
6954;DHT22;3516;47.980;8.808;2023-04-26T04:28:08;3.00;99.90
6954;DHT22;3516;47.980;8.808;2023-04-26T04:30:37;3.00;99.90
6954;DHT22;3516;47.980;8.808;2023-04-26T04:33:03;3.10;99.90
6954;DHT22;3516;47.980;8.808;2023-04-26T04:35:30;3.10;99.90
6954;DHT22;3516;47.980;8.808;2023-04-26T04:37:58;3.20;99.90
6954;DHT22;3516;47.980;8.808;2023-04-26T04:40:25;3.30;99.90
6954;DHT22;3516;47.980;8.808;2023-04-26T04:42:51;3.30;99.90
6954;DHT22;3516;47.980;8.808;2023-04-26T04:45:19;3.30;99.90
6954;DHT22;3516;47.980;8.808;2023-04-26T04:47:47;3.40;99.90
6954;DHT22;3516;47.980;8.808;2023-04-26T04:50:14;3.40;99.90
6954;DHT22;3516;47.980;8.808;2023-04-26T04:52:41;3.50;99.90
6954;DHT22;3516;47.980;8.808;2023-04-26T04:55:08;3.50;99.90
6954;DHT22;3516;47.980;8.808;2023-04-26T10:26:48;14.00;32.40
6954;DHT22;3516;47.980;8.808;2023-04-26T10:29:16;13.80;33.70
6954;DHT22;3516;47.980;8.808;2023-04-26T10:32:05;13.70;36.20
6954;DHT22;3516;47.980;8.808;2023-04-26T10:34:33;13.20;39.20
6954;DHT22;3516;47.980;8.808;2023-04-26T10:37:08;12.90;41.30
6954;DHT22;3516;47.980;8.808;2023-04-26T10:39:36;12.60;41.20
6954;DHT22;3516;47.980;8.808;2023-04-26T10:42:21;12.30;44.00
6954;DHT22;3516;47.980;8.808;2023-04-26T10:44:49;12.20;46.10
6954;DHT22;3516;47.980;8.808;2023-04-26T10:47:27;12.20;46.00
6954;DHT22;3516;47.980;8.808;2023-04-26T10:50:05;12.20;46.00
6954;DHT22;3516;47.980;8.808;2023-04-26T10:52:33;12.60;47.90
6954;DHT22;3516;47.980;8.808;2023-04-26T10:55:00;13.10;48.90
6954;DHT22;3516;47.980;8.808;2023-04-26T10:57:48;13.80;49.00
6954;DHT22;3516;47.980;8.808;2023-04-26T11:00:29;14.40;41.60
6954;DHT22;3516;47.980;8.808;2023-04-26T11:05:50;14.30;37.60
6954;DHT22;3516;47.980;8.808;2023-04-26T11:08:19;14.70;37.70
6954;DHT22;3516;47.980;8.808;2023-04-26T11:10:51;14.40;36.20
6954;DHT22;3516;47.980;8.808;2023-04-26T11:13:20;14.70;37.10
6954;DHT22;3516;47.980;8.808;2023-04-26T11:15:51;15.00;36.60
6954;DHT22;3516;47.980;8.808;2023-04-26T11:18:18;14.80;33.00
6954;DHT22;3516;47.980;8.808;2023-04-26T11:20:46;14.70;34.90
6954;DHT22;3516;47.980;8.808;2023-04-26T11:23:13;14.80;33.70
6954;DHT22;3516;47.980;8.808;2023-04-26T11:25:40;14.60;33.50
6954;DHT22;3516;47.980;8.808;2023-04-26T11:28:06;14.40;32.70
6954;DHT22;3516;47.980;8.808;2023-04-26T11:30:34;14.30;32.60
6954;DHT22;3516;47.980;8.808;2023-04-26T11:33:02;14.10;33.50
6954;DHT22;3516;47.980;8.808;2023-04-26T11:35:32;14.10;34.90
6954;DHT22;3516;47.980;8.808;2023-04-26T11:38:02;14.30;34.40
6954;DHT22;3516;47.980;8.808;2023-04-26T11:40:30;14.50;34.50
6954;DHT22;3516;47.980;8.808;2023-04-26T11:43:00;14.60;34.50
6954;DHT22;3516;47.980;8.808;2023-04-26T11:45:28;14.70;34.00
6954;DHT22;3516;47.980;8.808;2023-04-26T11:47:56;14.50;33.40
6954;DHT22;3516;47.980;8.808;2023-04-26T11:50:24;14.20;33.50
6954;DHT22;3516;47.980;8.808;2023-04-26T11:52:53;14.00;37.40
6954;DHT22;3516;47.980;8.808;2023-04-26T11:55:23;14.10;37.00
6954;DHT22;3516;47.980;8.808;2023-04-26T11:57:51;14.20;36.80
6954;DHT22;3516;47.980;8.808;2023-04-26T12:00:18;14.50;36.50
6954;DHT22;3516;47.980;8.808;2023-04-26T12:02:46;14.80;35.60
6954;DHT22;3516;47.980;8.808;2023-04-26T12:05:24;14.80;35.30
6954;DHT22;3516;47.980;8.808;2023-04-26T12:07:51;14.70;34.90
6954;DHT22;3516;47.980;8.808;2023-04-26T12:10:22;14.70;34.70
6954;DHT22;3516;47.980;8.808;2023-04-26T12:12:51;14.70;35.40
6954;DHT22;3516;47.980;8.808;2023-04-26T12:15:22;14.80;35.60
6954;DHT22;3516;47.980;8.808;2023-04-26T12:17:53;14.80;35.10
6954;DHT22;3516;47.980;8.808;2023-04-26T12:20:30;14.80;34.40
6954;DHT22;3516;47.980;8.808;2023-04-26T12:23:02;14.60;33.90
6954;DHT22;3516;47.980;8.808;2023-04-26T12:25:29;14.60;35.20
6954;DHT22;3516;47.980;8.808;2023-04-26T12:27:56;14.60;35.10
6954;DHT22;3516;47.980;8.808;2023-04-26T12:30:24;14.60;34.10
6954;DHT22;3516;47.980;8.808;2023-04-26T12:32:51;14.90;35.20
6954;DHT22;3516;47.980;8.808;2023-04-26T12:35:18;15.00;34.20
6954;DHT22;3516;47.980;8.808;2023-04-26T12:37:46;15.20;34.20
6954;DHT22;3516;47.980;8.808;2023-04-26T12:40:14;15.50;35.00
6954;DHT22;3516;47.980;8.808;2023-04-26T12:42:41;15.60;32.20
6954;DHT22;3516;47.980;8.808;2023-04-26T12:45:08;15.30;32.60
6954;DHT22;3516;47.980;8.808;2023-04-26T12:47:35;15.10;33.20
6954;DHT22;3516;47.980;8.808;2023-04-26T12:50:02;15.00;33.90
6954;DHT22;3516;47.980;8.808;2023-04-26T12:52:29;14.80;33.50
6954;DHT22;3516;47.980;8.808;2023-04-26T12:54:58;14.80;34.10
6954;DHT22;3516;47.980;8.808;2023-04-26T12:57:24;14.80;34.40
6954;DHT22;3516;47.980;8.808;2023-04-26T12:59:51;14.80;33.70
6954;DHT22;3516;47.980;8.808;2023-04-26T13:02:18;14.70;33.70
6954;DHT22;3516;47.980;8.808;2023-04-26T13:04:45;14.40;34.70
6954;DHT22;3516;47.980;8.808;2023-04-26T13:07:12;14.30;36.00
6954;DHT22;3516;47.980;8.808;2023-04-26T13:09:39;14.40;37.50
6954;DHT22;3516;47.980;8.808;2023-04-26T13:12:08;14.50;37.80
6954;DHT22;3516;47.980;8.808;2023-04-26T13:14:34;14.50;36.80
6954;DHT22;3516;47.980;8.808;2023-04-26T13:17:03;14.60;37.20
6954;DHT22;3516;47.980;8.808;2023-04-26T13:19:33;14.70;37.00
6954;DHT22;3516;47.980;8.808;2023-04-26T13:22:01;14.60;35.30
6954;DHT22;3516;47.980;8.808;2023-04-26T13:24:29;14.60;36.20
6954;DHT22;3516;47.980;8.808;2023-04-26T13:26:57;14.50;37.40
6954;DHT22;3516;47.980;8.808;2023-04-26T13:29:25;14.20;35.90
6954;DHT22;3516;47.980;8.808;2023-04-26T13:31:53;14.10;38.70
6954;DHT22;3516;47.980;8.808;2023-04-26T13:34:20;14.30;38.30
6954;DHT22;3516;47.980;8.808;2023-04-26T13:36:48;14.60;38.60
6954;DHT22;3516;47.980;8.808;2023-04-26T13:39:15;15.00;36.30
6954;DHT22;3516;47.980;8.808;2023-04-26T13:41:42;15.10;36.60
6954;DHT22;3516;47.980;8.808;2023-04-26T13:44:09;15.20;35.40
6954;DHT22;3516;47.980;8.808;2023-04-26T13:46:40;15.40;34.90
6954;DHT22;3516;47.980;8.808;2023-04-26T13:49:06;15.50;34.60
6954;DHT22;3516;47.980;8.808;2023-04-26T13:51:34;15.60;34.70
6954;DHT22;3516;47.980;8.808;2023-04-26T13:54:02;15.60;34.30
6954;DHT22;3516;47.980;8.808;2023-04-26T13:56:30;15.70;33.00
6954;DHT22;3516;47.980;8.808;2023-04-26T13:58:57;15.60;32.50
6954;DHT22;3516;47.980;8.808;2023-04-26T14:01:26;15.50;30.80
6954;DHT22;3516;47.980;8.808;2023-04-26T14:03:55;15.20;31.80
6954;DHT22;3516;47.980;8.808;2023-04-26T14:06:21;15.30;32.60
6954;DHT22;3516;47.980;8.808;2023-04-26T14:08:48;15.50;33.20
6954;DHT22;3516;47.980;8.808;2023-04-26T14:11:15;15.50;33.00
6954;DHT22;3516;47.980;8.808;2023-04-26T14:13:42;15.60;33.70
6954;DHT22;3516;47.980;8.808;2023-04-26T14:16:08;15.60;32.70
6954;DHT22;3516;47.980;8.808;2023-04-26T14:18:35;15.70;33.30
6954;DHT22;3516;47.980;8.808;2023-04-26T14:21:05;15.80;33.90
6954;DHT22;3516;47.980;8.808;2023-04-26T14:23:32;15.80;33.20
6954;DHT22;3516;47.980;8.808;2023-04-26T14:25:59;15.90;32.30
6954;DHT22;3516;47.980;8.808;2023-04-26T14:28:26;15.90;33.90
6954;DHT22;3516;47.980;8.808;2023-04-26T14:30:53;16.00;34.00
6954;DHT22;3516;47.980;8.808;2023-04-26T14:33:19;15.90;33.50
6954;DHT22;3516;47.980;8.808;2023-04-26T14:35:46;15.90;33.90
6954;DHT22;3516;47.980;8.808;2023-04-26T14:38:14;15.70;33.80
6954;DHT22;3516;47.980;8.808;2023-04-26T14:40:41;15.50;34.70
6954;DHT22;3516;47.980;8.808;2023-04-26T14:43:09;15.60;35.80
6954;DHT22;3516;47.980;8.808;2023-04-26T14:45:36;15.50;34.80
6954;DHT22;3516;47.980;8.808;2023-04-26T14:48:03;15.30;36.90
6954;DHT22;3516;47.980;8.808;2023-04-26T14:50:30;15.10;37.00
6954;DHT22;3516;47.980;8.808;2023-04-26T14:52:57;14.90;38.90
6954;DHT22;3516;47.980;8.808;2023-04-26T14:55:25;15.00;37.90
6954;DHT22;3516;47.980;8.808;2023-04-26T14:57:52;14.90;37.10
6954;DHT22;3516;47.980;8.808;2023-04-26T15:00:19;14.70;37.30
6954;DHT22;3516;47.980;8.808;2023-04-26T15:02:47;14.70;37.10
6954;DHT22;3516;47.980;8.808;2023-04-26T15:05:13;14.40;35.50
6954;DHT22;3516;47.980;8.808;2023-04-26T15:07:40;14.30;35.30
6954;DHT22;3516;47.980;8.808;2023-04-26T15:10:08;14.00;35.80
6954;DHT22;3516;47.980;8.808;2023-04-26T15:12:36;13.90;36.10
6954;DHT22;3516;47.980;8.808;2023-04-26T15:15:04;14.00;37.40
6954;DHT22;3516;47.980;8.808;2023-04-26T15:17:31;14.10;38.70
6954;DHT22;3516;47.980;8.808;2023-04-26T15:19:59;14.30;38.70
6954;DHT22;3516;47.980;8.808;2023-04-26T15:22:26;14.50;37.80
6954;DHT22;3516;47.980;8.808;2023-04-26T15:24:52;14.70;37.90
6954;DHT22;3516;47.980;8.808;2023-04-26T15:27:19;14.80;37.20
6954;DHT22;3516;47.980;8.808;2023-04-26T15:29:48;14.90;38.70
6954;DHT22;3516;47.980;8.808;2023-04-26T15:32:15;14.80;36.40
6954;DHT22;3516;47.980;8.808;2023-04-26T15:34:41;14.70;36.00
6954;DHT22;3516;47.980;8.808;2023-04-26T15:37:09;14.60;36.40
6954;DHT22;3516;47.980;8.808;2023-04-26T15:39:37;14.50;35.90
6954;DHT22;3516;47.980;8.808;2023-04-26T15:42:04;14.40;36.20
6954;DHT22;3516;47.980;8.808;2023-04-26T15:44:31;14.40;37.00
6954;DHT22;3516;47.980;8.808;2023-04-26T15:46:59;14.40;37.20
6954;DHT22;3516;47.980;8.808;2023-04-26T15:49:26;14.40;37.60
6954;DHT22;3516;47.980;8.808;2023-04-26T15:51:53;14.30;38.10
6954;DHT22;3516;47.980;8.808;2023-04-26T15:54:20;14.30;37.60
6954;DHT22;3516;47.980;8.808;2023-04-26T15:56:47;14.30;37.60
6954;DHT22;3516;47.980;8.808;2023-04-26T15:59:14;14.30;37.20
6954;DHT22;3516;47.980;8.808;2023-04-26T16:01:41;14.20;36.90
6954;DHT22;3516;47.980;8.808;2023-04-26T16:04:09;14.10;36.60
6954;DHT22;3516;47.980;8.808;2023-04-26T16:06:36;14.00;37.90
6954;DHT22;3516;47.980;8.808;2023-04-26T16:09:03;14.00;36.30
6954;DHT22;3516;47.980;8.808;2023-04-26T16:11:33;13.90;37.30
6954;DHT22;3516;47.980;8.808;2023-04-26T16:14:00;13.80;37.40
6954;DHT22;3516;47.980;8.808;2023-04-26T16:16:27;13.60;38.40
6954;DHT22;3516;47.980;8.808;2023-04-26T16:18:53;13.50;39.70
6954;DHT22;3516;47.980;8.808;2023-04-26T16:21:21;13.60;40.50
6954;DHT22;3516;47.980;8.808;2023-04-26T16:23:48;13.50;39.10
6954;DHT22;3516;47.980;8.808;2023-04-26T16:26:16;13.50;40.10
6954;DHT22;3516;47.980;8.808;2023-04-26T16:28:42;13.60;39.30
6954;DHT22;3516;47.980;8.808;2023-04-26T16:31:09;13.60;38.60
6954;DHT22;3516;47.980;8.808;2023-04-26T16:33:36;13.60;38.30
6954;DHT22;3516;47.980;8.808;2023-04-26T16:36:03;13.50;39.30
6954;DHT22;3516;47.980;8.808;2023-04-26T16:40:59;13.50;40.20
6954;DHT22;3516;47.980;8.808;2023-04-26T16:43:26;13.40;41.10
6954;DHT22;3516;47.980;8.808;2023-04-26T16:45:57;13.30;41.70
6954;DHT22;3516;47.980;8.808;2023-04-26T16:48:24;13.30;41.70
6954;DHT22;3516;47.980;8.808;2023-04-26T16:50:51;13.20;41.60
6954;DHT22;3516;47.980;8.808;2023-04-26T16:53:18;13.10;41.60
6954;DHT22;3516;47.980;8.808;2023-04-26T16:55:47;13.00;42.30
6954;DHT22;3516;47.980;8.808;2023-04-26T16:58:15;12.80;42.70
6954;DHT22;3516;47.980;8.808;2023-04-26T17:00:42;12.70;43.50
6954;DHT22;3516;47.980;8.808;2023-04-26T17:03:09;12.50;44.60
6954;DHT22;3516;47.980;8.808;2023-04-26T17:05:39;12.30;46.10
6954;DHT22;3516;47.980;8.808;2023-04-26T17:08:06;12.10;48.20
6954;DHT22;3516;47.980;8.808;2023-04-26T17:10:34;11.90;50.10
6954;DHT22;3516;47.980;8.808;2023-04-26T17:13:03;11.80;52.10
6954;DHT22;3516;47.980;8.808;2023-04-26T17:15:31;11.60;54.00
6954;DHT22;3516;47.980;8.808;2023-04-26T17:17:58;11.50;55.70
6954;DHT22;3516;47.980;8.808;2023-04-26T17:20:26;11.40;57.80
6954;DHT22;3516;47.980;8.808;2023-04-26T17:22:52;11.30;58.90
6954;DHT22;3516;47.980;8.808;2023-04-26T17:25:19;11.20;60.10
6954;DHT22;3516;47.980;8.808;2023-04-26T17:27:47;11.20;61.30
6954;DHT22;3516;47.980;8.808;2023-04-26T17:30:15;11.10;63.50
6954;DHT22;3516;47.980;8.808;2023-04-26T17:32:42;11.10;64.90
6954;DHT22;3516;47.980;8.808;2023-04-26T17:35:09;11.00;66.00
6954;DHT22;3516;47.980;8.808;2023-04-26T17:37:36;10.90;70.00
6954;DHT22;3516;47.980;8.808;2023-04-26T17:40:03;10.80;75.20
6954;DHT22;3516;47.980;8.808;2023-04-26T17:42:32;10.70;82.10
6954;DHT22;3516;47.980;8.808;2023-04-26T17:44:59;10.60;89.90
6954;DHT22;3516;47.980;8.808;2023-04-26T17:47:27;10.60;95.10
6954;DHT22;3516;47.980;8.808;2023-04-26T17:49:54;10.50;99.90
6954;DHT22;3516;47.980;8.808;2023-04-26T17:52:21;10.40;99.90
6954;DHT22;3516;47.980;8.808;2023-04-26T17:54:48;10.30;99.90
6954;DHT22;3516;47.980;8.808;2023-04-26T17:57:14;10.30;99.90
6954;DHT22;3516;47.980;8.808;2023-04-26T17:59:44;10.30;99.90
6954;DHT22;3516;47.980;8.808;2023-04-26T18:02:11;10.20;99.90
6954;DHT22;3516;47.980;8.808;2023-04-26T18:04:39;10.00;99.90
6954;DHT22;3516;47.980;8.808;2023-04-26T18:07:05;9.90;99.90
6954;DHT22;3516;47.980;8.808;2023-04-26T18:09:32;9.80;99.90
6954;DHT22;3516;47.980;8.808;2023-04-26T18:11:59;9.70;99.90
6954;DHT22;3516;47.980;8.808;2023-04-26T18:14:26;9.50;99.90
6954;DHT22;3516;47.980;8.808;2023-04-26T18:16:52;9.40;99.90
6954;DHT22;3516;47.980;8.808;2023-04-26T18:19:19;9.20;99.90
6954;DHT22;3516;47.980;8.808;2023-04-26T18:21:47;9.00;99.90
6954;DHT22;3516;47.980;8.808;2023-04-26T18:24:16;8.90;99.90
6954;DHT22;3516;47.980;8.808;2023-04-26T18:26:43;8.70;99.90
6954;DHT22;3516;47.980;8.808;2023-04-26T18:29:10;8.60;99.90
6954;DHT22;3516;47.980;8.808;2023-04-26T18:31:37;8.50;99.90
6954;DHT22;3516;47.980;8.808;2023-04-26T18:34:04;8.50;99.90
6954;DHT22;3516;47.980;8.808;2023-04-26T18:36:31;8.40;99.90
6954;DHT22;3516;47.980;8.808;2023-04-26T18:38:59;8.30;99.90
6954;DHT22;3516;47.980;8.808;2023-04-26T18:41:25;8.20;99.90
6954;DHT22;3516;47.980;8.808;2023-04-26T18:43:52;8.10;99.90
6954;DHT22;3516;47.980;8.808;2023-04-26T18:46:19;7.90;99.90
6954;DHT22;3516;47.980;8.808;2023-04-26T18:48:46;7.80;99.90
6954;DHT22;3516;47.980;8.808;2023-04-26T18:51:12;7.70;99.90
6954;DHT22;3516;47.980;8.808;2023-04-26T18:53:39;7.50;99.90
6954;DHT22;3516;47.980;8.808;2023-04-26T18:56:07;7.40;99.90
6954;DHT22;3516;47.980;8.808;2023-04-26T18:58:34;7.30;99.90
6954;DHT22;3516;47.980;8.808;2023-04-26T19:01:01;7.20;99.90
6954;DHT22;3516;47.980;8.808;2023-04-26T19:03:28;7.00;99.90
6954;DHT22;3516;47.980;8.808;2023-04-26T19:05:54;6.90;99.90
6954;DHT22;3516;47.980;8.808;2023-04-26T19:08:21;6.80;99.90
6954;DHT22;3516;47.980;8.808;2023-04-26T19:10:48;6.80;99.90
6954;DHT22;3516;47.980;8.808;2023-04-26T19:13:16;6.80;99.90
6954;DHT22;3516;47.980;8.808;2023-04-26T19:15:43;6.80;99.90
6954;DHT22;3516;47.980;8.808;2023-04-26T19:18:10;6.80;99.90
6954;DHT22;3516;47.980;8.808;2023-04-26T19:20:36;6.90;99.90
6954;DHT22;3516;47.980;8.808;2023-04-26T19:23:03;6.90;99.90
6954;DHT22;3516;47.980;8.808;2023-04-26T19:25:30;7.00;99.90
6954;DHT22;3516;47.980;8.808;2023-04-26T19:27:57;7.00;99.90
6954;DHT22;3516;47.980;8.808;2023-04-26T19:30:25;7.00;99.90
6954;DHT22;3516;47.980;8.808;2023-04-26T19:32:52;7.10;99.90
6954;DHT22;3516;47.980;8.808;2023-04-26T19:35:18;7.10;99.90
6954;DHT22;3516;47.980;8.808;2023-04-26T19:37:45;7.10;99.90
6954;DHT22;3516;47.980;8.808;2023-04-26T19:40:12;7.10;99.90
6954;DHT22;3516;47.980;8.808;2023-04-26T19:42:38;7.10;99.90
6954;DHT22;3516;47.980;8.808;2023-04-26T19:45:06;7.20;99.90
6954;DHT22;3516;47.980;8.808;2023-04-26T19:47:34;7.20;99.90
6954;DHT22;3516;47.980;8.808;2023-04-26T19:50:01;7.20;99.90
6954;DHT22;3516;47.980;8.808;2023-04-26T19:52:28;7.20;99.90
6954;DHT22;3516;47.980;8.808;2023-04-26T19:54:55;7.20;99.90
6954;DHT22;3516;47.980;8.808;2023-04-26T19:57:21;7.20;99.90
6954;DHT22;3516;47.980;8.808;2023-04-26T19:59:48;7.20;99.90
6954;DHT22;3516;47.980;8.808;2023-04-26T20:02:15;7.10;99.90
6954;DHT22;3516;47.980;8.808;2023-04-26T20:04:43;7.10;99.90
6954;DHT22;3516;47.980;8.808;2023-04-26T20:07:10;7.10;99.90
6954;DHT22;3516;47.980;8.808;2023-04-26T20:09:37;7.10;99.90
6954;DHT22;3516;47.980;8.808;2023-04-26T20:12:04;7.10;99.90
6954;DHT22;3516;47.980;8.808;2023-04-26T20:14:31;7.10;99.90
6954;DHT22;3516;47.980;8.808;2023-04-26T20:16:58;7.10;99.90
6954;DHT22;3516;47.980;8.808;2023-04-26T20:19:26;7.10;99.90
6954;DHT22;3516;47.980;8.808;2023-04-26T20:21:54;7.10;99.90
6954;DHT22;3516;47.980;8.808;2023-04-26T20:24:21;7.10;99.90
6954;DHT22;3516;47.980;8.808;2023-04-26T20:26:52;7.10;99.90
6954;DHT22;3516;47.980;8.808;2023-04-26T20:29:19;7.10;99.90
6954;DHT22;3516;47.980;8.808;2023-04-26T20:31:45;7.10;99.90
6954;DHT22;3516;47.980;8.808;2023-04-26T20:34:12;7.10;99.90
6954;DHT22;3516;47.980;8.808;2023-04-26T20:36:39;7.10;99.90
6954;DHT22;3516;47.980;8.808;2023-04-26T20:39:07;7.10;99.90
6954;DHT22;3516;47.980;8.808;2023-04-26T20:41:35;7.00;99.90
6954;DHT22;3516;47.980;8.808;2023-04-26T20:44:01;7.00;99.90
6954;DHT22;3516;47.980;8.808;2023-04-26T20:46:29;7.00;99.90
6954;DHT22;3516;47.980;8.808;2023-04-26T20:48:56;7.00;99.90
6954;DHT22;3516;47.980;8.808;2023-04-26T20:51:23;7.00;99.90
6954;DHT22;3516;47.980;8.808;2023-04-26T20:53:49;6.90;99.90
6954;DHT22;3516;47.980;8.808;2023-04-26T20:56:18;6.90;99.90
6954;DHT22;3516;47.980;8.808;2023-04-26T20:58:44;6.90;99.90
6954;DHT22;3516;47.980;8.808;2023-04-26T21:01:11;6.90;99.90
6954;DHT22;3516;47.980;8.808;2023-04-26T21:03:38;6.90;99.90
6954;DHT22;3516;47.980;8.808;2023-04-26T21:06:04;6.90;99.90
6954;DHT22;3516;47.980;8.808;2023-04-26T21:08:31;6.90;99.90
6954;DHT22;3516;47.980;8.808;2023-04-26T21:10:58;6.90;99.90
6954;DHT22;3516;47.980;8.808;2023-04-26T21:13:27;6.90;99.90
6954;DHT22;3516;47.980;8.808;2023-04-26T21:15:54;6.80;99.90
6954;DHT22;3516;47.980;8.808;2023-04-26T21:18:21;6.80;99.90
6954;DHT22;3516;47.980;8.808;2023-04-26T21:20:47;6.80;99.90
6954;DHT22;3516;47.980;8.808;2023-04-26T21:23:14;6.80;99.90
6954;DHT22;3516;47.980;8.808;2023-04-26T21:25:43;6.80;99.90
6954;DHT22;3516;47.980;8.808;2023-04-26T21:28:10;6.70;99.90
6954;DHT22;3516;47.980;8.808;2023-04-26T21:30:38;6.70;99.90
6954;DHT22;3516;47.980;8.808;2023-04-26T21:33:05;6.70;99.90
6954;DHT22;3516;47.980;8.808;2023-04-26T21:35:31;6.70;99.90
6954;DHT22;3516;47.980;8.808;2023-04-26T21:37:58;6.70;99.90
6954;DHT22;3516;47.980;8.808;2023-04-26T21:40:25;6.70;99.90
6954;DHT22;3516;47.980;8.808;2023-04-26T21:42:52;6.70;99.90
6954;DHT22;3516;47.980;8.808;2023-04-26T21:45:18;6.70;99.90
6954;DHT22;3516;47.980;8.808;2023-04-26T21:47:47;6.70;99.90
6954;DHT22;3516;47.980;8.808;2023-04-26T21:50:13;6.70;99.90
6954;DHT22;3516;47.980;8.808;2023-04-26T21:52:40;6.70;99.90
6954;DHT22;3516;47.980;8.808;2023-04-26T21:55:07;6.70;99.90
6954;DHT22;3516;47.980;8.808;2023-04-26T21:57:34;6.60;99.90
6954;DHT22;3516;47.980;8.808;2023-04-26T22:00:01;6.60;99.90
6954;DHT22;3516;47.980;8.808;2023-04-26T22:02:31;6.60;99.90
6954;DHT22;3516;47.980;8.808;2023-04-26T22:04:59;6.60;99.90
6954;DHT22;3516;47.980;8.808;2023-04-26T22:07:25;6.60;99.90
6954;DHT22;3516;47.980;8.808;2023-04-26T22:09:52;6.50;99.90
6954;DHT22;3516;47.980;8.808;2023-04-26T22:12:19;6.60;99.90
